Orbital elements of COSMOS 1823 DEB
| Launched | 19 February 1987 |
| Flight ended | – |
| Launch site | Plesetsk Missile and Space Complex, Russia |
| Owner | Commonwealth of Independent States (former USSR) |
| NORAD ID | 18803 |
| Date fetched |
Epoch osculation |
Inc. [°] |
Ecc. | RA asc node [hr] |
Arg Peri. [°] |
Mean anom [°] |
Mean motion [rev/day] |
Abs. mag |
| Date fetched |
Epoch osculation |
Inc. [°] |
Ecc. | RA asc node [hr] |
Arg Peri. [°] |
Mean anom [°] |
Mean motion [rev/day] |
Abs. mag |
| 2026 May 01 17:56 | 2026 Apr 29 21:48:07 | 73.4478 | 0.00847 | 18.6135 | 188.5594 | 327.8935 | 12.32021 | – |
| 2026 Apr 30 17:56 | 2026 Apr 29 21:48:07 | 73.4478 | 0.00847 | 18.6135 | 188.5594 | 327.8935 | 12.32021 | – |
| 2026 Apr 29 17:57 | 2026 Apr 24 05:09:24 | 73.4478 | 0.00847 | 19.1186 | 196.4287 | 327.8935 | 12.32021 | – |
| 2026 Apr 28 17:56 | 2026 Apr 24 05:09:24 | 73.4478 | 0.00847 | 19.1186 | 196.4287 | 327.8935 | 12.32021 | – |
| 2026 Apr 27 17:58 | 2026 Apr 24 05:09:24 | 73.4478 | 0.00847 | 19.1186 | 196.4287 | 327.8935 | 12.32021 | – |
| 2026 Apr 26 17:58 | 2026 Apr 24 05:09:24 | 73.4478 | 0.00847 | 19.1186 | 196.4287 | 327.8935 | 12.32021 | – |
| 2026 Apr 25 17:58 | 2026 Apr 24 05:09:24 | 73.4478 | 0.00847 | 19.1186 | 196.4287 | 327.8935 | 12.32021 | – |
| 2026 Apr 24 17:59 | 2026 Apr 24 05:09:24 | 73.4478 | 0.00847 | 19.1186 | 196.4287 | 327.8935 | 12.32021 | – |
| 2026 Apr 23 17:57 | 2026 Apr 18 22:43:52 | 73.4480 | 0.00847 | 19.5859 | 203.7346 | 327.8935 | 12.32021 | – |
| 2026 Apr 22 17:57 | 2026 Apr 18 22:43:52 | 73.4480 | 0.00847 | 19.5859 | 203.7346 | 327.8935 | 12.32021 | – |
| 2026 Apr 21 17:57 | 2026 Apr 18 22:43:52 | 73.4480 | 0.00847 | 19.5859 | 203.7346 | 327.8935 | 12.32021 | – |
| 2026 Apr 20 17:57 | 2026 Apr 18 22:43:52 | 73.4480 | 0.00847 | 19.5859 | 203.7346 | 327.8935 | 12.32021 | – |
| 2026 Apr 19 17:58 | 2026 Apr 18 22:43:52 | 73.4480 | 0.00847 | 19.5859 | 203.7346 | 327.8935 | 12.32021 | – |
| 2026 Apr 18 17:56 | 2026 Apr 12 19:53:48 | 73.4484 | 0.00847 | 20.1286 | 212.2514 | 327.8935 | 12.32021 | – |
| 2026 Apr 16 17:57 | 2026 Apr 12 19:53:48 | 73.4484 | 0.00847 | 20.1286 | 212.2514 | 327.8935 | 12.32021 | – |
| 2026 Apr 14 17:57 | 2026 Apr 12 19:53:48 | 73.4484 | 0.00847 | 20.1286 | 212.2514 | 327.8935 | 12.32021 | – |
| 2026 Apr 13 17:57 | 2026 Apr 12 19:53:48 | 73.4484 | 0.00847 | 20.1286 | 212.2514 | 327.8935 | 12.32021 | – |
| 2026 Apr 12 17:57 | 2026 Apr 08 14:44:17 | 73.4491 | 0.00847 | 20.5025 | 218.1159 | 327.8935 | 12.32021 | – |
| 2026 Apr 11 17:57 | 2026 Apr 08 14:44:17 | 73.4491 | 0.00847 | 20.5025 | 218.1159 | 327.8935 | 12.32021 | – |
| 2026 Apr 10 17:58 | 2026 Apr 08 14:44:17 | 73.4491 | 0.00847 | 20.5025 | 218.1159 | 327.8935 | 12.32021 | – |
| 2026 Apr 09 18:01 | 2026 Apr 08 14:44:17 | 73.4491 | 0.00847 | 20.5025 | 218.1159 | 327.8935 | 12.32021 | – |
| 2026 Apr 08 17:57 | 2026 Apr 08 14:44:17 | 73.4491 | 0.00847 | 20.5025 | 218.1159 | 327.8935 | 12.32021 | – |
| 2026 Apr 07 17:57 | 2026 Apr 01 23:17:04 | 73.4504 | 0.00848 | 21.0918 | 227.3840 | 327.8935 | 12.32021 | – |
| 2026 Apr 06 17:57 | 2026 Apr 01 23:17:04 | 73.4504 | 0.00848 | 21.0918 | 227.3840 | 327.8935 | 12.32021 | – |
| 2026 Apr 05 17:56 | 2026 Apr 01 23:17:04 | 73.4504 | 0.00848 | 21.0918 | 227.3840 | 327.8935 | 12.32021 | – |
| 2026 Apr 04 17:57 | 2026 Apr 01 23:17:04 | 73.4504 | 0.00848 | 21.0918 | 227.3840 | 327.8935 | 12.32021 | – |